Time;durP1;ratioP1;P1;durP2;ratioP2;P2;SDS_P1;SDS_P2;PMS_P1;PMS_P2;Temp;Humidity;BMP_temperature;BMP_pressure;BME280_temperature;BME280_humidity;BME280_pressure;Samples;Min_cycle;Max_cycle;Signal;HPM_P1;HPM_P2
2022/06/07 00:02:09;;;;;;;7.50;4.97;;;16.40;99.90;;;;;;5049963;28;20037;-76
2022/06/07 00:04:36;;;;;;;9.20;5.80;;;16.40;99.90;;;;;;5064881;28;20028;-76
2022/06/07 00:07:02;;;;;;;7.22;5.82;;;16.30;99.90;;;;;;5058089;28;20029;-76
2022/06/07 00:09:29;;;;;;;8.85;5.75;;;16.30;99.90;;;;;;5069505;28;20103;-76
2022/06/07 00:11:55;;;;;;;8.45;6.22;;;16.20;99.90;;;;;;5071442;28;20028;-76
2022/06/07 00:14:21;;;;;;;7.10;5.40;;;16.20;99.90;;;;;;5054193;28;20086;-75
2022/06/07 00:16:46;;;;;;;9.70;6.30;;;16.20;99.90;;;;;;5054861;28;20450;-76
2022/06/07 00:19:12;;;;;;;9.57;6.28;;;16.20;99.90;;;;;;5058151;28;20024;-76
2022/06/07 00:21:38;;;;;;;11.77;6.43;;;16.20;99.90;;;;;;5070095;28;20028;-76
2022/06/07 00:24:04;;;;;;;6.97;5.97;;;16.20;99.90;;;;;;5067142;28;20394;-76
2022/06/07 00:26:31;;;;;;;10.73;6.30;;;16.20;99.90;;;;;;5067835;28;20040;-76
2022/06/07 00:28:58;;;;;;;7.90;5.95;;;16.10;99.90;;;;;;5065684;28;20033;-76
2022/06/07 00:31:23;;;;;;;7.93;5.75;;;16.10;99.90;;;;;;5074273;28;20028;-76
2022/06/07 00:33:49;;;;;;;8.57;6.20;;;16.10;99.90;;;;;;5062595;28;20031;-76
2022/06/07 00:36:15;;;;;;;10.38;5.50;;;16.10;99.90;;;;;;5074057;28;20028;-76
2022/06/07 00:38:45;;;;;;;9.27;5.90;;;16.00;99.90;;;;;;5064494;28;20367;-76
2022/06/07 00:41:11;;;;;;;9.57;5.53;;;16.00;99.90;;;;;;5074164;28;20025;-76
2022/06/07 00:43:40;;;;;;;7.90;5.07;;;16.00;99.90;;;;;;5073889;28;20035;-76
2022/06/07 00:46:10;;;;;;;5.97;3.72;;;15.90;99.90;;;;;;5074080;28;20240;-76
2022/06/07 00:48:37;;;;;;;7.00;4.45;;;15.80;99.90;;;;;;5057965;28;20455;-76
2022/06/07 00:51:13;;;;;;;4.95;3.78;;;15.70;99.90;;;;;;5067882;28;20033;-76
2022/06/07 00:53:39;;;;;;;6.07;3.90;;;15.60;99.90;;;;;;5066989;28;20127;-75
2022/06/07 00:56:06;;;;;;;6.18;3.92;;;15.50;99.90;;;;;;5061906;28;20103;-75
2022/06/07 00:58:32;;;;;;;6.93;4.20;;;15.40;99.90;;;;;;5056680;28;20677;-75
2022/06/07 01:00:59;;;;;;;6.57;4.90;;;15.40;99.90;;;;;;5068831;28;20095;-75
2022/06/07 01:03:26;;;;;;;6.03;4.05;;;15.30;99.90;;;;;;5073753;28;20082;-75
2022/06/07 01:05:52;;;;;;;7.97;4.35;;;15.30;99.90;;;;;;5074058;28;20076;-75
2022/06/07 01:11:03;;;;;;;7.00;3.92;;;15.10;99.90;;;;;;5054736;28;20043;-75
2022/06/07 01:13:32;;;;;;;7.25;4.15;;;15.10;99.90;;;;;;5069674;28;20025;-75
2022/06/07 01:16:01;;;;;;;10.38;4.57;;;15.00;99.90;;;;;;5064338;28;20078;-76
2022/06/07 01:18:27;;;;;;;7.57;4.20;;;15.00;99.90;;;;;;5057209;28;20012;-76
2022/06/07 01:21:28;;;;;;;6.00;4.07;;;15.00;99.90;;;;;;5073051;28;20020;-76
2022/06/07 01:23:54;;;;;;;6.78;4.10;;;14.90;99.90;;;;;;5054989;28;20019;-75
2022/06/07 01:26:19;;;;;;;5.03;4.22;;;14.80;99.90;;;;;;5061097;28;20038;-75
2022/06/07 01:28:45;;;;;;;7.30;4.13;;;14.80;99.90;;;;;;5065448;28;20036;-75
2022/06/07 01:31:10;;;;;;;6.40;4.22;;;14.80;99.90;;;;;;5073379;28;20381;-75
2022/06/07 01:33:37;;;;;;;6.38;4.45;;;14.80;99.90;;;;;;5073539;28;20151;-75
2022/06/07 01:36:11;;;;;;;6.63;4.50;;;14.80;99.90;;;;;;5071995;28;20029;-75
2022/06/07 01:38:37;;;;;;;6.68;4.63;;;14.70;99.90;;;;;;5069040;28;20082;-75
2022/06/07 01:43:50;;;;;;;7.88;4.70;;;14.70;99.90;;;;;;5073489;28;20129;-75
2022/06/07 01:46:17;;;;;;;7.20;4.47;;;14.70;99.90;;;;;;5064856;28;20029;-75
2022/06/07 01:48:43;;;;;;;7.22;4.28;;;14.70;99.90;;;;;;5045640;28;20033;-75
2022/06/07 01:51:10;;;;;;;4.72;4.20;;;14.70;99.90;;;;;;5065829;28;20029;-75
2022/06/07 01:53:37;;;;;;;5.25;4.07;;;14.70;99.90;;;;;;5066105;28;20282;-75
2022/06/07 01:56:05;;;;;;;7.55;4.30;;;14.70;99.90;;;;;;5059359;28;20032;-75
2022/06/07 01:58:31;;;;;;;6.93;4.30;;;14.60;99.90;;;;;;5062256;28;20070;-75
2022/06/07 02:00:57;;;;;;;5.90;3.85;;;14.60;99.90;;;;;;5055880;28;20024;-75
2022/06/07 02:03:23;;;;;;;5.70;4.75;;;14.50;99.90;;;;;;5070885;28;20021;-75
2022/06/07 02:06:00;;;;;;;6.45;3.90;;;14.50;99.90;;;;;;5059658;28;20025;-76
2022/06/07 02:08:26;;;;;;;6.75;3.95;;;14.50;99.90;;;;;;5064814;28;20033;-76
2022/06/07 02:10:53;;;;;;;6.43;4.10;;;14.50;99.90;;;;;;5054314;28;20122;-76
2022/06/07 02:13:19;;;;;;;7.05;4.20;;;14.40;99.90;;;;;;5070647;28;20028;-76
2022/06/07 02:15:46;;;;;;;6.63;4.45;;;14.40;99.90;;;;;;5053362;28;20385;-76
2022/06/07 02:18:12;;;;;;;6.60;4.18;;;14.30;99.90;;;;;;5054086;28;20644;-76
2022/06/07 02:20:37;;;;;;;5.82;4.15;;;14.30;99.90;;;;;;5053386;28;20092;-76
2022/06/07 02:23:06;;;;;;;9.05;4.97;;;14.30;99.90;;;;;;5057598;28;20029;-75
2022/06/07 02:25:38;;;;;;;9.50;5.00;;;14.30;99.90;;;;;;5058796;28;20067;-76
2022/06/07 02:28:05;;;;;;;6.45;4.53;;;14.30;99.90;;;;;;5052300;28;20582;-76
2022/06/07 02:30:31;;;;;;;5.90;3.92;;;14.20;99.90;;;;;;5067282;28;20024;-76
2022/06/07 02:32:56;;;;;;;7.32;3.80;;;14.20;99.90;;;;;;5058390;28;20466;-75
2022/06/07 02:35:23;;;;;;;6.85;3.92;;;14.20;99.90;;;;;;5087675;28;20027;-76
2022/06/07 02:37:48;;;;;;;4.10;3.70;;;14.20;99.90;;;;;;5062520;28;20028;-75
2022/06/07 02:40:14;;;;;;;6.00;4.10;;;14.20;99.90;;;;;;5060063;28;20386;-75
2022/06/07 02:42:39;;;;;;;9.98;4.45;;;14.20;99.90;;;;;;5061855;28;20031;-76
2022/06/07 02:45:06;;;;;;;6.68;3.95;;;14.20;99.90;;;;;;5071494;28;20221;-76
2022/06/07 02:47:31;;;;;;;6.00;4.13;;;14.20;99.90;;;;;;5057136;28;20470;-76
2022/06/07 02:49:57;;;;;;;4.85;3.80;;;14.20;99.90;;;;;;5065762;28;20024;-76
2022/06/07 02:52:22;;;;;;;6.50;3.95;;;14.20;99.90;;;;;;5052579;28;20025;-76
2022/06/07 02:54:48;;;;;;;6.25;4.13;;;14.20;99.90;;;;;;5063235;28;20555;-76
2022/06/07 02:57:15;;;;;;;6.20;3.88;;;14.20;99.90;;;;;;5067807;28;20020;-76
2022/06/07 02:59:40;;;;;;;5.90;3.80;;;14.20;99.90;;;;;;5061051;28;20035;-76
2022/06/07 03:02:06;;;;;;;5.40;4.25;;;14.20;99.90;;;;;;5072096;28;20025;-76
2022/06/07 03:04:31;;;;;;;7.60;4.00;;;14.20;99.90;;;;;;5072404;28;20017;-76
2022/06/07 03:06:57;;;;;;;4.72;4.00;;;14.30;99.90;;;;;;5072249;28;20469;-76
2022/06/07 03:09:23;;;;;;;6.63;4.68;;;14.30;99.90;;;;;;5070163;28;20028;-76
2022/06/07 03:11:48;;;;;;;5.05;3.90;;;14.30;99.90;;;;;;5056306;28;20036;-76
2022/06/07 03:14:14;;;;;;;7.45;4.38;;;14.30;99.90;;;;;;5068503;28;20024;-76
2022/06/07 03:16:40;;;;;;;7.85;4.60;;;14.30;99.90;;;;;;5072146;28;20081;-76
2022/06/07 03:19:06;;;;;;;5.65;4.13;;;14.30;99.90;;;;;;5054047;28;20397;-76
2022/06/07 03:21:31;;;;;;;6.15;4.20;;;14.30;99.90;;;;;;5065888;28;20020;-76
2022/06/07 03:23:57;;;;;;;5.80;4.30;;;14.30;99.90;;;;;;5072159;28;20025;-76
2022/06/07 03:26:22;;;;;;;6.20;4.65;;;14.30;99.90;;;;;;5071612;28;20024;-76
2022/06/07 03:28:48;;;;;;;6.15;4.60;;;14.40;99.90;;;;;;5057029;28;20029;-76
2022/06/07 03:31:16;;;;;;;8.52;4.38;;;14.40;99.90;;;;;;5067011;28;20039;-76
2022/06/07 03:33:43;;;;;;;5.25;4.25;;;14.40;99.90;;;;;;5059916;28;20024;-76
2022/06/07 03:36:12;;;;;;;5.28;4.60;;;14.40;99.90;;;;;;5072005;28;20021;-76
2022/06/07 03:38:40;;;;;;;5.00;4.30;;;14.40;99.90;;;;;;5057989;28;20033;-76
2022/06/07 03:41:05;;;;;;;8.38;4.47;;;14.40;99.90;;;;;;5048261;28;20104;-75
2022/06/07 03:43:31;;;;;;;5.65;4.20;;;14.40;99.90;;;;;;5051392;28;20097;-75
2022/06/07 03:46:09;;;;;;;7.78;5.22;;;14.40;99.90;;;;;;5066812;28;20074;-76
2022/06/07 03:48:37;;;;;;;8.93;4.68;;;14.40;99.90;;;;;;5063088;28;20025;-76
2022/06/07 03:51:03;;;;;;;8.85;4.05;;;14.40;99.90;;;;;;5066609;28;20102;-75
2022/06/07 03:53:29;;;;;;;7.05;3.85;;;14.40;99.90;;;;;;5061625;28;20041;-75
2022/06/07 03:55:55;;;;;;;5.75;4.05;;;14.40;99.90;;;;;;5075895;28;20031;-75
2022/06/07 03:58:20;;;;;;;5.25;4.00;;;14.40;99.90;;;;;;5063175;28;20420;-75
2022/06/07 04:00:46;;;;;;;7.85;4.55;;;14.40;99.90;;;;;;5062192;28;20033;-75
2022/06/07 04:03:12;;;;;;;4.57;3.78;;;14.40;99.90;;;;;;5076014;28;20074;-75
2022/06/07 04:05:42;;;;;;;4.93;3.15;;;14.40;99.90;;;;;;5061439;28;20024;-75
2022/06/07 04:08:10;;;;;;;5.85;3.78;;;14.40;99.90;;;;;;5072887;28;20417;-76
2022/06/07 04:10:37;;;;;;;6.43;4.20;;;14.40;99.90;;;;;;5059505;28;20443;-75
2022/06/07 04:13:03;;;;;;;7.38;4.68;;;14.40;99.90;;;;;;5075883;28;20032;-76
2022/06/07 04:15:29;;;;;;;4.70;3.92;;;14.40;99.90;;;;;;5073297;28;20376;-76
2022/06/07 04:17:55;;;;;;;5.22;3.83;;;14.30;99.90;;;;;;5054838;28;20021;-76
2022/06/07 04:20:21;;;;;;;5.93;4.28;;;14.40;99.90;;;;;;5052289;28;20025;-76
2022/06/07 04:22:47;;;;;;;5.15;3.92;;;14.30;99.90;;;;;;5059817;28;20343;-76
2022/06/07 04:25:12;;;;;;;4.78;4.25;;;14.30;99.90;;;;;;5055473;28;20033;-76
2022/06/07 04:27:38;;;;;;;5.78;3.80;;;14.30;99.90;;;;;;5064639;28;20021;-76
2022/06/07 04:30:05;;;;;;;5.00;4.28;;;14.30;99.90;;;;;;5059830;28;20039;-76
2022/06/07 04:32:31;;;;;;;5.78;4.40;;;14.30;99.90;;;;;;5052659;28;20115;-76
2022/06/07 04:34:57;;;;;;;6.63;3.90;;;14.40;99.90;;;;;;5057828;28;20025;-75
2022/06/07 04:37:23;;;;;;;5.68;4.10;;;14.40;99.90;;;;;;5057994;28;20036;-76
2022/06/07 04:39:48;;;;;;;4.70;4.18;;;14.40;99.90;;;;;;5054812;28;20028;-75
2022/06/07 04:42:14;;;;;;;5.68;4.07;;;14.40;99.90;;;;;;5057904;28;20017;-76
2022/06/07 04:44:39;;;;;;;4.95;3.88;;;14.30;99.90;;;;;;5056467;28;20713;-75
2022/06/07 04:47:05;;;;;;;5.72;3.30;;;14.30;99.90;;;;;;5054917;28;20032;-76
2022/06/07 04:49:31;;;;;;;4.32;2.80;;;14.30;99.90;;;;;;5057434;28;20107;-76
2022/06/07 04:51:56;;;;;;;5.93;2.85;;;14.30;99.90;;;;;;5057017;28;20029;-76
2022/06/07 04:54:22;;;;;;;4.78;3.10;;;14.30;99.90;;;;;;5057201;28;20045;-76
2022/06/07 04:56:47;;;;;;;4.47;3.00;;;14.20;99.90;;;;;;5053655;28;20103;-76
2022/06/07 04:59:13;;;;;;;3.80;2.90;;;14.20;99.90;;;;;;5063874;28;20488;-75
2022/06/07 05:01:42;;;;;;;5.25;3.33;;;14.20;99.90;;;;;;5058933;28;20036;-76
2022/06/07 05:04:09;;;;;;;4.70;3.00;;;14.20;99.90;;;;;;5057985;28;20025;-76
2022/06/07 05:06:38;;;;;;;5.85;3.33;;;14.20;99.90;;;;;;5062202;28;20032;-76
2022/06/07 05:09:12;;;;;;;4.55;3.47;;;14.20;99.90;;;;;;5058240;28;20025;-76
2022/06/07 05:11:40;;;;;;;3.90;3.13;;;14.20;99.90;;;;;;5055023;28;20028;-76
2022/06/07 05:14:08;;;;;;;4.20;3.15;;;14.20;99.90;;;;;;5055837;28;20029;-76
2022/06/07 05:16:43;;;;;;;5.80;3.22;;;14.20;99.90;;;;;;5050175;28;20025;-76
2022/06/07 05:19:12;;;;;;;6.37;3.60;;;14.20;99.90;;;;;;5055658;28;20090;-68
2022/06/07 05:21:47;;;;;;;6.88;3.40;;;14.30;99.90;;;;;;5058770;28;20044;-76
2022/06/07 05:24:13;;;;;;;5.40;3.28;;;14.20;99.90;;;;;;5064077;28;20042;-76
2022/06/07 05:26:46;;;;;;;5.07;3.42;;;14.30;99.90;;;;;;5051406;28;20029;-77
2022/06/07 05:29:21;;;;;;;5.18;3.80;;;14.30;99.90;;;;;;5048007;28;20037;-76
2022/06/07 05:31:47;;;;;;;5.70;3.80;;;14.30;99.90;;;;;;5050955;28;20025;-76
2022/06/07 05:34:13;;;;;;;5.85;3.70;;;14.30;99.90;;;;;;5051811;28;20802;-76
2022/06/07 05:36:39;;;;;;;5.57;3.50;;;14.20;99.90;;;;;;5051098;28;20025;-76
2022/06/07 05:39:07;;;;;;;9.07;3.42;;;14.30;99.90;;;;;;5051647;28;20029;-76
2022/06/07 05:41:34;;;;;;;5.57;4.25;;;14.30;99.90;;;;;;5051813;28;20025;-76
2022/06/07 05:44:01;;;;;;;5.72;3.90;;;14.30;99.90;;;;;;5051167;28;20528;-77
2022/06/07 05:46:26;;;;;;;6.97;3.50;;;14.30;99.90;;;;;;5051441;28;20033;-77
2022/06/07 05:48:52;;;;;;;4.03;2.85;;;14.40;99.90;;;;;;5050292;28;20040;-77
2022/06/07 05:51:18;;;;;;;5.82;2.60;;;14.40;99.90;;;;;;5051615;28;20469;-77
2022/06/07 05:53:43;;;;;;;5.10;2.50;;;14.40;99.90;;;;;;5049778;28;20489;-77
2022/06/07 05:56:12;;;;;;;3.80;2.78;;;14.40;99.90;;;;;;5048187;28;20083;-77
2022/06/07 05:58:38;;;;;;;7.65;3.95;;;14.40;99.90;;;;;;5049440;28;20474;-77
2022/06/07 06:01:04;;;;;;;6.10;3.83;;;14.50;99.90;;;;;;5046723;28;20145;-77
2022/06/07 06:03:31;;;;;;;7.20;3.90;;;14.50;99.90;;;;;;5047764;28;20111;-77
2022/06/07 06:05:56;;;;;;;8.35;3.97;;;14.60;99.90;;;;;;5049309;28;20037;-77
2022/06/07 06:11:14;;;;;;;3.65;2.88;;;14.70;99.90;;;;;;5050268;28;20052;-77
2022/06/07 06:13:39;;;;;;;5.20;3.25;;;14.70;99.90;;;;;;5050786;28;20470;-77
2022/06/07 06:16:14;;;;;;;11.30;3.80;;;14.70;99.90;;;;;;5050503;28;20025;-77
2022/06/07 06:18:42;;;;;;;8.05;3.83;;;14.80;99.90;;;;;;5049802;28;20377;-77
2022/06/07 06:21:08;;;;;;;7.93;4.05;;;14.80;99.90;;;;;;5050361;28;20044;-75
2022/06/07 06:23:34;;;;;;;7.25;3.63;;;14.80;99.90;;;;;;5052894;28;20473;-76
2022/06/07 06:26:00;;;;;;;6.35;3.50;;;14.80;99.90;;;;;;5050281;28;20043;-76
2022/06/07 06:28:25;;;;;;;4.78;3.67;;;14.80;99.90;;;;;;5051357;28;20207;-75
2022/06/07 06:30:53;;;;;;;16.65;4.85;;;14.80;99.90;;;;;;5049292;28;20025;-75
2022/06/07 06:33:19;;;;;;;6.40;3.97;;;14.80;99.90;;;;;;5055066;28;20036;-74
2022/06/07 06:35:52;;;;;;;6.28;3.78;;;14.80;99.90;;;;;;5050211;28;20091;-75
2022/06/07 06:38:19;;;;;;;7.40;3.85;;;14.90;99.90;;;;;;5050328;28;20063;-74
2022/06/07 06:40:45;;;;;;;7.07;4.28;;;14.80;99.90;;;;;;5049530;28;20033;-76
2022/06/07 06:43:13;;;;;;;6.80;3.95;;;14.80;99.90;;;;;;5052901;28;20036;-76
2022/06/07 06:45:39;;;;;;;7.45;4.22;;;14.90;99.90;;;;;;5054183;28;20036;-76
2022/06/07 06:48:06;;;;;;;6.88;4.45;;;14.90;99.90;;;;;;5051147;28;20025;-76
2022/06/07 06:50:33;;;;;;;5.60;4.40;;;14.90;99.90;;;;;;5050526;28;20025;-75
2022/06/07 06:53:02;;;;;;;6.22;4.20;;;14.90;99.90;;;;;;5049492;28;20040;-76
2022/06/07 06:55:33;;;;;;;5.90;4.10;;;14.90;99.90;;;;;;5050028;28;20033;-76
2022/06/07 06:58:01;;;;;;;5.75;3.78;;;14.90;99.90;;;;;;5050065;28;20588;-75
2022/06/07 07:00:30;;;;;;;7.13;4.07;;;14.90;99.90;;;;;;5050648;28;20059;-76
2022/06/07 07:02:55;;;;;;;8.05;4.18;;;14.90;99.90;;;;;;5048763;28;20029;-75
2022/06/07 07:05:22;;;;;;;7.05;4.15;;;14.90;99.90;;;;;;5052034;28;20074;-76
2022/06/07 07:07:48;;;;;;;7.63;4.22;;;15.00;99.90;;;;;;5052439;28;20504;-75
2022/06/07 07:10:14;;;;;;;6.63;4.32;;;15.00;99.90;;;;;;5049799;28;20045;-75
2022/06/07 07:12:40;;;;;;;6.47;4.20;;;15.00;99.90;;;;;;5049710;28;20035;-76
2022/06/07 07:15:11;;;;;;;6.30;4.18;;;15.00;99.90;;;;;;5049478;28;20116;-75
2022/06/07 07:17:38;;;;;;;7.00;3.90;;;15.00;99.90;;;;;;5048604;28;20431;-75
2022/06/07 07:20:05;;;;;;;8.18;4.45;;;14.90;99.90;;;;;;5049939;28;20428;-75
2022/06/07 07:22:31;;;;;;;5.10;3.92;;;14.90;99.90;;;;;;5049815;28;20031;-76
2022/06/07 07:24:56;;;;;;;5.55;3.88;;;14.90;99.90;;;;;;5051929;28;20041;-76
2022/06/07 07:27:23;;;;;;;4.15;3.22;;;14.90;99.90;;;;;;5048883;28;20025;-75
2022/06/07 07:29:49;;;;;;;5.78;3.15;;;15.00;99.90;;;;;;5049709;28;20112;-75
2022/06/07 07:32:14;;;;;;;5.32;3.63;;;14.90;99.90;;;;;;5047228;28;20704;-75
2022/06/07 07:34:40;;;;;;;4.78;3.08;;;14.90;99.90;;;;;;5050975;28;20374;-75
2022/06/07 07:37:06;;;;;;;4.80;3.50;;;14.90;99.90;;;;;;5051724;28;20055;-75
2022/06/07 07:39:31;;;;;;;4.78;3.00;;;14.90;99.90;;;;;;5048739;28;20072;-75
2022/06/07 07:41:57;;;;;;;4.15;3.30;;;14.90;99.90;;;;;;5049343;28;20028;-75
2022/06/07 07:44:24;;;;;;;3.17;2.70;;;14.90;99.90;;;;;;5049253;28;20166;-75
2022/06/07 07:46:51;;;;;;;4.03;3.50;;;14.90;99.90;;;;;;5050127;28;20033;-76
2022/06/07 07:49:19;;;;;;;5.05;3.33;;;14.80;99.90;;;;;;5052705;28;20529;-75
2022/06/07 07:51:48;;;;;;;6.20;3.38;;;14.80;99.90;;;;;;5051294;28;20127;-74
2022/06/07 07:54:15;;;;;;;5.50;3.60;;;14.80;99.90;;;;;;5047804;28;20056;-75
2022/06/07 07:56:44;;;;;;;6.07;3.97;;;14.80;99.90;;;;;;5048310;28;20056;-75
2022/06/07 07:59:13;;;;;;;5.50;4.13;;;14.80;99.90;;;;;;5050891;28;20040;-75
2022/06/07 08:01:39;;;;;;;4.18;3.15;;;14.80;99.90;;;;;;5045849;28;20021;-75
2022/06/07 08:04:05;;;;;;;5.88;3.75;;;14.80;99.90;;;;;;5048812;28;20017;-75
2022/06/07 08:06:33;;;;;;;5.22;3.28;;;14.80;99.90;;;;;;5052602;28;20029;-74
2022/06/07 08:09:00;;;;;;;6.18;3.58;;;14.80;99.90;;;;;;5051063;28;20103;-74
2022/06/07 08:11:34;;;;;;;5.63;3.92;;;14.80;99.90;;;;;;5049540;28;20111;-75
2022/06/07 08:14:01;;;;;;;5.97;3.55;;;14.70;99.90;;;;;;5050040;28;20032;-75
2022/06/07 08:16:27;;;;;;;7.05;3.58;;;14.80;99.90;;;;;;5052179;28;20082;-75
2022/06/07 08:18:53;;;;;;;4.40;3.10;;;14.80;99.90;;;;;;5048179;28;20108;-74
2022/06/07 08:21:22;;;;;;;3.85;3.03;;;14.90;99.90;;;;;;5052829;28;20021;-75
2022/06/07 08:23:56;;;;;;;4.32;2.90;;;14.90;99.90;;;;;;5051050;28;20021;-74
2022/06/07 08:26:23;;;;;;;4.43;3.67;;;14.90;99.90;;;;;;5054135;28;20028;-75
2022/06/07 08:28:48;;;;;;;3.90;3.20;;;14.80;99.90;;;;;;5054102;28;20028;-77
2022/06/07 08:31:20;;;;;;;4.20;3.40;;;14.80;99.90;;;;;;5055104;28;20477;-76
2022/06/07 08:39:18;;;;;;;3.50;3.20;;;14.70;99.90;;;;;;5051152;28;20039;-76
2022/06/07 08:41:48;;;;;;;4.75;3.00;;;14.70;99.90;;;;;;5049327;28;20493;-74
2022/06/07 08:44:44;;;;;;;4.97;3.80;;;14.70;99.90;;;;;;5056812;28;20025;-76
2022/06/07 08:47:35;;;;;;;4.95;4.13;;;14.70;99.90;;;;;;5050229;28;20039;-77
2022/06/07 08:50:14;;;;;;;5.15;4.63;;;14.70;99.90;;;;;;5053443;28;20058;-74
2022/06/07 08:52:40;;;;;;;7.93;4.35;;;14.70;99.90;;;;;;5051458;28;20362;-74
2022/06/07 08:55:34;;;;;;;5.97;4.95;;;14.70;99.90;;;;;;5052238;28;20064;-74
2022/06/07 08:58:16;;;;;;;6.10;4.93;;;14.80;99.90;;;;;;5049623;28;20608;-76
2022/06/07 09:00:50;;;;;;;6.28;4.93;;;14.90;99.90;;;;;;5049299;28;20478;-76
2022/06/07 09:03:31;;;;;;;6.68;5.20;;;14.90;99.90;;;;;;5050640;28;20495;-76
2022/06/07 09:05:59;;;;;;;6.18;5.55;;;15.00;99.90;;;;;;5053289;28;20044;-76
2022/06/07 09:08:33;;;;;;;7.90;5.93;;;15.00;99.90;;;;;;5050483;28;20321;-75
2022/06/07 09:13:51;;;;;;;5.82;4.85;;;15.20;99.90;;;;;;5051533;28;20075;-76
2022/06/07 09:16:17;;;;;;;5.88;5.03;;;15.30;99.90;;;;;;5045668;28;20561;-76
2022/06/07 09:18:45;;;;;;;7.05;4.15;;;15.30;99.90;;;;;;5045290;28;20024;-76
2022/06/07 09:21:29;;;;;;;6.35;3.63;;;15.30;99.90;;;;;;5047905;28;20029;-77
2022/06/07 09:23:58;;;;;;;5.78;3.60;;;15.30;99.90;;;;;;5048423;28;20056;-77
2022/06/07 09:26:30;;;;;;;4.75;3.85;;;15.40;99.90;;;;;;5048818;28;20043;-77
2022/06/07 09:29:12;;;;;;;7.10;4.13;;;15.50;99.90;;;;;;5043720;28;20044;-77
2022/06/07 09:31:41;;;;;;;4.95;3.90;;;15.60;99.90;;;;;;5046392;28;20363;-77
2022/06/07 09:34:14;;;;;;;7.35;4.45;;;15.80;99.90;;;;;;5049100;28;20548;-77
2022/06/07 09:36:43;;;;;;;4.82;3.97;;;15.80;99.90;;;;;;5046291;28;20048;-77
2022/06/07 09:39:39;;;;;;;5.82;4.88;;;15.90;99.90;;;;;;5049510;28;20460;-77
2022/06/07 09:42:20;;;;;;;5.65;4.28;;;15.90;99.90;;;;;;5043412;28;20048;-77
2022/06/07 09:44:57;;;;;;;7.13;4.68;;;15.90;99.90;;;;;;5047603;28;20032;-77
2022/06/07 09:47:25;;;;;;;6.78;4.57;;;16.00;99.90;;;;;;5047431;28;20041;-77
2022/06/07 09:50:23;;;;;;;4.93;4.20;;;16.00;99.90;;;;;;5047211;28;20037;-77
2022/06/07 09:52:59;;;;;;;6.13;3.97;;;15.90;99.90;;;;;;5045343;28;20029;-77
2022/06/07 09:55:38;;;;;;;5.90;4.43;;;15.80;99.90;;;;;;5048563;28;20037;-77
2022/06/07 09:58:50;;;;;;;5.43;4.07;;;15.80;99.90;;;;;;5058279;28;20468;-75
2022/06/07 10:01:24;;;;;;;6.75;4.25;;;15.80;99.90;;;;;;5054053;28;20100;-74
2022/06/07 10:04:27;;;;;;;4.65;4.13;;;15.80;99.90;;;;;;5053242;28;20430;-74
2022/06/07 10:07:03;;;;;;;5.38;4.38;;;15.80;99.90;;;;;;5034918;28;20026;-74
2022/06/07 10:10:08;;;;;;;5.97;4.50;;;15.80;99.90;;;;;;5050896;28;20146;-74
2022/06/07 10:12:45;;;;;;;5.45;4.70;;;15.70;99.90;;;;;;5054499;28;20023;-74
2022/06/07 10:15:19;;;;;;;7.80;4.63;;;15.80;99.90;;;;;;5054620;28;20369;-75
2022/06/07 10:17:58;;;;;;;5.53;4.00;;;15.80;99.90;;;;;;5049124;28;20029;-74
2022/06/07 10:21:04;;;;;;;5.10;4.28;;;15.80;99.90;;;;;;5062016;28;20016;-74
2022/06/07 10:23:46;;;;;;;;;;;16.00;99.90;;;;;;5059152;28;20020;-74
2022/06/07 10:26:36;;;;;;;6.68;3.75;;;16.20;99.90;;;;;;5058592;28;19923;-75
2022/06/07 10:29:33;;;;;;;6.32;3.83;;;16.30;99.90;;;;;;5047518;28;20017;-75
2022/06/07 10:32:16;;;;;;;4.68;3.90;;;16.50;99.90;;;;;;5040855;28;20037;-74
2022/06/07 10:34:53;;;;;;;4.97;3.30;;;16.50;99.90;;;;;;5049733;28;20374;-75
2022/06/07 10:37:29;;;;;;;4.95;3.60;;;16.60;99.90;;;;;;5043165;28;20021;-74
2022/06/07 10:40:11;;;;;;;6.32;4.03;;;16.60;99.90;;;;;;5069931;28;20078;-74
2022/06/07 10:42:56;;;;;;;5.15;3.70;;;16.80;99.90;;;;;;5053071;28;20025;-74
2022/06/07 10:45:43;;;;;;;5.32;4.30;;;16.70;99.90;;;;;;5053505;28;20108;-74
2022/06/07 10:48:18;;;;;;;6.32;3.80;;;16.80;99.90;;;;;;5052583;28;20064;-74
2022/06/07 10:50:56;;;;;;;5.35;4.13;;;16.80;99.90;;;;;;5053147;28;20025;-74
2022/06/07 10:53:29;;;;;;;5.63;4.38;;;16.90;99.90;;;;;;5055900;28;20063;-74
2022/06/07 10:56:10;;;;;;;7.72;5.07;;;17.00;99.90;;;;;;5052591;28;20033;-74
2022/06/07 10:58:52;;;;;;;4.80;4.00;;;17.10;99.90;;;;;;5049861;28;20709;-74
2022/06/07 11:01:32;;;;;;;7.20;4.35;;;17.50;99.90;;;;;;5058002;28;20830;-74
2022/06/07 11:10:32;;;;;;;5.35;3.95;;;18.10;99.90;;;;;;5050797;28;20113;-74
2022/06/07 11:13:01;;;;;;;4.03;3.42;;;18.20;99.90;;;;;;5044314;28;20024;-75
2022/06/07 11:15:31;;;;;;;4.85;3.65;;;18.30;99.90;;;;;;5051641;28;20021;-77
2022/06/07 11:18:09;;;;;;;4.97;3.00;;;18.20;99.90;;;;;;5044299;28;20031;-77
2022/06/07 11:20:36;;;;;;;4.72;3.17;;;18.30;99.90;;;;;;5048135;28;20489;-77
2022/06/07 11:23:15;;;;;;;6.00;3.00;;;18.40;99.90;;;;;;5044883;28;20025;-77
2022/06/07 11:25:57;;;;;;;2.83;2.00;;;18.40;99.90;;;;;;5039763;28;20078;-77
2022/06/07 11:28:43;;;;;;;4.97;2.40;;;18.30;99.90;;;;;;5041427;28;20047;-77
2022/06/07 11:31:21;;;;;;;2.88;2.08;;;18.20;99.90;;;;;;5045965;28;20031;-75
2022/06/07 11:33:52;;;;;;;2.35;1.98;;;18.10;99.90;;;;;;5048499;28;20606;-74
2022/06/07 11:36:23;;;;;;;5.15;1.95;;;18.20;99.90;;;;;;5048176;28;20033;-74
2022/06/07 11:38:55;;;;;;;5.43;2.10;;;18.10;99.90;;;;;;5050054;28;20029;-74
2022/06/07 11:41:40;;;;;;;2.67;1.90;;;18.10;99.90;;;;;;5054003;28;20021;-74
2022/06/07 11:44:15;;;;;;;3.50;2.00;;;18.30;99.90;;;;;;5041983;28;20021;-76
2022/06/07 11:46:47;;;;;;;2.70;1.98;;;18.70;99.90;;;;;;5039170;28;20025;-76
2022/06/07 11:49:24;;;;;;;3.63;2.15;;;19.10;99.90;;;;;;5041101;28;20541;-77
2022/06/07 11:52:01;;;;;;;3.65;2.00;;;19.40;99.90;;;;;;5041423;28;20086;-77
2022/06/07 11:54:30;;;;;;;2.65;1.70;;;19.60;99.90;;;;;;5041641;28;20048;-77
2022/06/07 11:57:00;;;;;;;2.53;1.50;;;19.70;99.90;;;;;;5037728;28;20827;-77
2022/06/07 11:59:34;;;;;;;1.95;1.50;;;19.90;99.90;;;;;;5042053;28;20033;-77
2022/06/07 12:02:00;;;;;;;1.50;1.20;;;20.20;99.90;;;;;;5042220;28;20479;-77
2022/06/07 12:04:52;;;;;;;1.60;1.10;;;20.30;99.90;;;;;;5042722;28;20378;-77
2022/06/07 12:07:39;;;;;;;1.50;1.13;;;20.30;99.90;;;;;;5045178;28;20318;-76
2022/06/07 12:10:21;;;;;;;4.63;1.42;;;20.40;99.90;;;;;;5045751;28;20055;-77
2022/06/07 12:12:49;;;;;;;1.45;1.20;;;20.70;99.90;;;;;;5045443;28;20052;-77
2022/06/07 12:15:18;;;;;;;1.38;0.90;;;20.90;99.90;;;;;;5044224;28;20115;-77
2022/06/07 12:17:58;;;;;;;1.42;1.00;;;21.20;99.90;;;;;;5044032;28;20167;-77
2022/06/07 12:20:35;;;;;;;1.52;1.10;;;21.30;99.90;;;;;;5043902;28;20159;-78
2022/06/07 12:23:29;;;;;;;1.58;1.05;;;21.40;99.90;;;;;;5045053;28;20028;-77
2022/06/07 12:26:15;;;;;;;2.47;1.25;;;21.60;99.90;;;;;;5042040;28;20581;-77
2022/06/07 12:28:48;;;;;;;3.33;1.20;;;21.80;99.90;;;;;;5044343;28;20033;-77
2022/06/07 12:31:30;;;;;;;1.25;1.10;;;22.20;99.90;;;;;;5043487;28;20071;-78
2022/06/07 12:34:02;;;;;;;2.92;1.00;;;22.40;99.90;;;;;;5046696;28;20045;-77
2022/06/07 12:36:34;;;;;;;1.00;0.90;;;22.60;99.90;;;;;;5046388;28;20040;-77
2022/06/07 12:39:11;;;;;;;1.65;0.95;;;23.00;99.90;;;;;;5045369;28;20033;-75
2022/06/07 12:42:04;;;;;;;1.80;0.90;;;23.40;99.90;;;;;;5045758;28;20021;-71
2022/06/07 12:44:31;;;;;;;2.30;0.90;;;23.40;99.90;;;;;;5038280;28;20041;-71
2022/06/07 12:46:59;;;;;;;3.25;0.88;;;23.10;99.90;;;;;;5045954;28;20029;-71
2022/06/07 12:49:29;;;;;;;1.45;0.80;;;22.60;99.90;;;;;;5050416;28;20643;-71
2022/06/07 12:52:01;;;;;;;1.38;0.80;;;22.40;99.90;;;;;;5047292;28;20159;-71
2022/06/07 12:54:28;;;;;;;4.55;0.98;;;22.30;99.90;;;;;;5045122;28;20055;-71
2022/06/07 12:56:56;;;;;;;1.05;0.82;;;22.10;99.90;;;;;;5044410;28;20041;-71
2022/06/07 12:59:38;;;;;;;1.48;1.00;;;22.00;99.90;;;;;;5045140;28;20495;-71
2022/06/07 13:02:18;;;;;;;2.47;1.00;;;21.80;99.90;;;;;;5044484;28;20055;-71
2022/06/07 13:04:48;;;;;;;1.58;1.10;;;21.60;99.90;;;;;;5045219;28;20032;-71
2022/06/07 13:07:22;;;;;;;1.25;0.85;;;21.60;99.90;;;;;;5044587;28;20047;-70
2022/06/07 13:09:53;;;;;;;1.52;0.90;;;21.40;99.90;;;;;;5045947;28;20036;-71
2022/06/07 13:12:43;;;;;;;1.75;0.93;;;21.30;99.90;;;;;;5044675;28;20080;-71
2022/06/07 13:15:21;;;;;;;4.20;1.25;;;21.50;99.90;;;;;;5042314;28;20040;-72
2022/06/07 13:18:06;;;;;;;3.45;0.80;;;21.30;99.90;;;;;;5042528;28;20095;-71
2022/06/07 13:20:46;;;;;;;3.05;0.90;;;21.30;99.90;;;;;;5044252;28;20420;-72
2022/06/07 13:23:26;;;;;;;2.00;0.80;;;21.20;99.90;;;;;;5043691;28;20025;-72
2022/06/07 13:26:07;;;;;;;3.58;1.20;;;21.20;99.90;;;;;;5043331;28;20029;-72
2022/06/07 13:28:34;;;;;;;1.30;0.98;;;21.00;99.90;;;;;;5049346;28;20029;-72
2022/06/07 13:31:00;;;;;;;1.90;0.93;;;20.80;99.90;;;;;;5053057;28;20048;-72